首页
METAR-TAF:

METAR-TAF

机场 :

石油平台

Ekofisk, 挪威

纬度: 56-33N, 经度: 003-15E, 海拔: 3米

当前天气观测

该预报发布于29分钟前的21:50 UTC
风速6节,风向东北
温度 2°C
湿度 100%
气压 1031 hPa
能見度: 0200

METAR: ENLE 022150Z 05006KT 0200 FG VV002 02/02 Q1031 W06/S3

时间: 23:19 (22:19 UTC)

预报

该预报发布于2小时和19分钟前的20:00 UTC
预报有效从02日的 21点(UTC)到 03日的 06点(UTC)
风速8节,风向南转南东
能見度: 0200
层高于200英尺
几率 30%
从 02日的 21点(UTC)到 03日的 06点(UTC)
能见度10公里或以上
散云层高于400英尺
多云层高于1200英尺

TAF: ENLE 022000Z 0221/0306 15008KT 0200 FG VV002 PROB30 0221/0306 9999 NSW SCT004 BKN012

超过4000个机场的气象观测和天气预报(METAR&TAF报告)。

可查询的气象台以黄色和红色小点在地图上表示。

将鼠标移到小点上方,可查看气象台名称。

然后点击查看天气观测和预报。

如需切换地图:点击带黑十字的绿色按钮放大地图;点击带横线的绿色按钮缩小地图;或者点击绿色箭头查看邻近地区的地图。


METAR-TAF: